createdAt,value
2019-04-06T00:00:11.579Z,76.47
2019-04-06T00:03:25.177Z,83.00
2019-04-06T00:06:39.003Z,59.13
2019-04-06T00:09:52.700Z,72.87
2019-04-06T00:13:06.200Z,68.93
2019-04-06T00:16:19.738Z,76.53
2019-04-06T00:19:33.336Z,71.23
2019-04-06T00:22:47.069Z,68.93
2019-04-06T00:26:00.551Z,64.10
2019-04-06T00:29:14.543Z,68.87
2019-04-06T00:32:31.919Z,80.73
2019-04-06T00:35:45.429Z,78.60
2019-04-06T00:38:59.233Z,74.60
2019-04-06T00:42:12.741Z,60.23
2019-04-06T00:45:26.242Z,82.33
2019-04-06T00:48:40.026Z,73.07
2019-04-06T00:51:53.895Z,75.47
2019-04-06T00:55:07.872Z,73.90
2019-04-06T00:58:21.412Z,73.30
2019-04-06T01:01:35.463Z,125.03
2019-04-06T01:04:49.157Z,74.17
2019-04-06T01:08:03.321Z,131.57
2019-04-06T01:11:17.147Z,79.77
2019-04-06T01:14:30.817Z,81.83
2019-04-06T01:17:44.348Z,95.67
2019-04-06T01:20:57.859Z,194.17
2019-04-06T01:24:11.978Z,138.67
2019-04-06T01:27:25.505Z,182.10
2019-04-06T01:30:39.548Z,178.60
2019-04-06T01:33:53.295Z,585.73
2019-04-06T01:37:07.232Z,466.07
2019-04-06T01:40:21.157Z,282.53
2019-04-06T01:43:34.753Z,236.87
2019-04-06T01:46:48.370Z,167.10
2019-04-06T01:50:02.100Z,318.37
2019-04-06T01:53:15.936Z,140.87
2019-04-06T01:56:29.946Z,127.30
2019-04-06T01:59:43.339Z,383.73
2019-04-06T02:02:56.890Z,238.20
2019-04-06T02:06:10.494Z,323.43
2019-04-06T02:09:24.013Z,212.43
2019-04-06T02:12:37.586Z,140.63
2019-04-06T02:15:51.197Z,124.23
2019-04-06T02:19:04.855Z,312.80
2019-04-06T02:22:18.339Z,236.93
2019-04-06T02:25:31.852Z,161.97
2019-04-06T02:28:45.587Z,116.70
2019-04-06T02:32:24.562Z,122.23
2019-04-06T02:36:07.144Z,132.03
2019-04-06T02:39:31.323Z,119.37
2019-04-06T02:42:48.634Z,116.70
2019-04-06T02:46:02.502Z,143.47
2019-04-06T02:49:16.009Z,207.70
2019-04-06T02:52:29.473Z,145.87
2019-04-06T02:55:42.936Z,129.03
2019-04-06T02:58:56.673Z,177.53
2019-04-06T03:02:10.409Z,277.47
2019-04-06T03:05:24.104Z,575.33
2019-04-06T03:08:37.634Z,285.13
2019-04-06T03:11:51.340Z,210.67
2019-04-06T03:15:06.284Z,138.30
2019-04-06T03:18:20.095Z,228.70
2019-04-06T03:21:33.737Z,306.73
2019-04-06T03:24:47.631Z,268.97
2019-04-06T03:28:01.892Z,227.73
2019-04-06T03:31:22.801Z,324.37
2019-04-06T03:34:33.531Z,326.97
2019-04-06T03:37:47.239Z,472.73
2019-04-06T03:41:00.921Z,131.90
2019-04-06T03:44:14.742Z,491.63
2019-04-06T03:47:28.402Z,490.30
2019-04-06T03:50:42.158Z,336.40
2019-04-06T03:53:55.896Z,192.97
2019-04-06T03:57:16.020Z,130.27
2019-04-06T04:00:24.820Z,600.73
2019-04-06T04:03:38.272Z,418.93
2019-04-06T04:06:51.847Z,561.37
2019-04-06T04:10:06.310Z,264.33
2019-04-06T04:13:20.069Z,302.50
2019-04-06T04:16:34.152Z,138.53
2019-04-06T04:19:47.960Z,512.53
2019-04-06T04:23:01.445Z,516.43
2019-04-06T04:26:14.931Z,488.90
2019-04-06T04:29:28.428Z,606.43
2019-04-06T04:32:42.329Z,437.60
2019-04-06T04:35:56.266Z,257.03
2019-04-06T04:39:10.145Z,518.67
2019-04-06T04:42:23.663Z,234.70
2019-04-06T04:45:37.153Z,73.40
2019-04-06T04:48:50.607Z,159.30
2019-04-06T04:52:04.443Z,62.23
2019-04-06T04:55:18.217Z,53.43
2019-04-06T04:58:31.715Z,65.50
2019-04-06T05:01:45.543Z,56.00
2019-04-06T05:04:59.825Z,49.83
2019-04-06T05:08:13.327Z,46.90
2019-04-06T05:11:26.906Z,42.67
2019-04-06T05:14:56.854Z,32.77
2019-04-06T05:18:10.529Z,28.27
2019-04-06T05:21:24.054Z,26.80
2019-04-06T05:24:37.545Z,39.37
2019-04-06T05:27:52.909Z,43.47
2019-04-06T05:31:06.605Z,47.83
2019-04-06T05:34:20.181Z,48.30
2019-04-06T05:37:33.917Z,94.47
2019-04-06T05:40:47.734Z,737.37
2019-04-06T05:44:01.238Z,108.87
2019-04-06T05:47:15.010Z,396.33
2019-04-06T05:50:28.600Z,219.20
2019-04-06T05:53:42.120Z,294.30
2019-04-06T05:56:55.620Z,342.77
2019-04-06T06:00:10.546Z,330.20
2019-04-06T06:03:25.174Z,598.63
2019-04-06T06:06:39.185Z,292.00
2019-04-06T06:09:52.693Z,1284.10
2019-04-06T06:13:06.294Z,382.93
2019-04-06T06:16:20.565Z,214.33
2019-04-06T06:19:34.128Z,423.23
2019-04-06T06:22:47.948Z,199.50
2019-04-06T06:26:01.818Z,260.67
2019-04-06T06:29:15.300Z,155.43
2019-04-06T06:32:31.014Z,352.37
2019-04-06T06:35:44.796Z,71.40
2019-04-06T06:38:58.256Z,214.30
2019-04-06T06:42:11.755Z,100.47
2019-04-06T06:45:25.243Z,499.43
2019-04-06T06:48:38.761Z,363.27
2019-04-06T06:51:52.762Z,220.23
2019-04-06T06:55:07.292Z,92.63
2019-04-06T06:58:25.674Z,409.27
2019-04-06T07:01:36.218Z,528.30
2019-04-06T07:04:49.828Z,596.20
2019-04-06T07:08:03.428Z,172.20
2019-04-06T07:11:17.019Z,70.83
2019-04-06T07:14:33.974Z,97.97
2019-04-06T07:17:51.368Z,197.50
2019-04-06T07:21:08.843Z,184.33
2019-04-06T07:24:23.905Z,70.37
2019-04-06T07:27:39.543Z,112.83
2019-04-06T07:30:53.951Z,107.30
2019-04-06T07:34:07.664Z,56.37
2019-04-06T07:37:21.191Z,49.63
2019-04-06T07:40:34.680Z,29.67
2019-04-06T07:43:48.191Z,46.33
2019-04-06T07:47:02.080Z,22.30
2019-04-06T07:50:15.999Z,25.27
2019-04-06T07:53:29.616Z,21.47
2019-04-06T07:56:43.703Z,34.90
2019-04-06T07:59:57.584Z,39.60
2019-04-06T08:03:11.134Z,42.20
2019-04-06T08:06:24.909Z,42.60
2019-04-06T08:09:38.660Z,41.63
2019-04-06T08:12:55.317Z,38.53
2019-04-06T08:16:12.117Z,40.27
2019-04-06T08:19:25.916Z,38.67
2019-04-06T08:22:39.417Z,38.27
2019-04-06T08:25:52.902Z,39.20
2019-04-06T08:29:06.848Z,47.57
2019-04-06T08:32:20.578Z,41.30
2019-04-06T08:35:34.054Z,42.17
2019-04-06T08:38:48.017Z,40.53
2019-04-06T08:42:01.953Z,37.07
2019-04-06T08:45:16.166Z,34.70
2019-04-06T08:48:29.704Z,35.40
2019-04-06T08:51:43.212Z,36.17
2019-04-06T08:54:57.109Z,39.80
2019-04-06T08:58:10.709Z,36.63
2019-04-06T09:01:24.427Z,36.73
2019-04-06T09:04:37.924Z,34.80
2019-04-06T09:07:51.813Z,36.03
2019-04-06T09:11:05.306Z,36.03
2019-04-06T09:14:19.120Z,32.97
2019-04-06T09:17:32.916Z,38.80
2019-04-06T09:20:46.418Z,34.67
2019-04-06T09:23:59.877Z,33.07
2019-04-06T09:27:13.446Z,31.97
2019-04-06T09:30:27.300Z,39.40
2019-04-06T09:33:41.147Z,36.80
2019-04-06T09:36:54.827Z,32.17
2019-04-06T09:40:08.405Z,35.80
2019-04-06T09:43:21.948Z,31.77
2019-04-06T09:46:54.525Z,33.30
2019-04-06T09:50:36.799Z,34.17
2019-04-06T09:54:09.179Z,29.90
2019-04-06T09:57:48.491Z,33.00
2019-04-06T10:01:25.725Z,33.47
2019-04-06T10:04:53.192Z,32.97
2019-04-06T10:08:27.124Z,32.23
2019-04-06T10:11:49.210Z,31.63
2019-04-06T10:15:26.541Z,33.63
2019-04-06T10:18:52.862Z,33.17
2019-04-06T10:22:20.048Z,34.90
2019-04-06T10:25:58.094Z,31.27
2019-04-06T10:29:28.537Z,32.77
2019-04-06T10:32:57.638Z,31.00
2019-04-06T10:36:25.809Z,34.33
2019-04-06T10:39:58.986Z,28.60
2019-04-06T10:43:28.240Z,32.00
2019-04-06T10:47:00.078Z,31.03
2019-04-06T10:50:19.309Z,29.80
2019-04-06T10:53:50.135Z,31.70
2019-04-06T10:57:35.718Z,26.80
2019-04-06T11:01:07.372Z,29.80
2019-04-06T11:04:39.266Z,27.10
2019-04-06T11:08:12.669Z,28.83
2019-04-06T11:11:44.929Z,27.03
2019-04-06T11:15:18.084Z,27.60
2019-04-06T11:19:10.230Z,30.93
2019-04-06T11:22:44.662Z,29.60
2019-04-06T11:26:33.296Z,32.30
2019-04-06T11:30:11.253Z,33.70
2019-04-06T11:33:21.997Z,31.67
2019-04-06T11:36:44.379Z,34.67
2019-04-06T11:40:18.128Z,33.57
2019-04-06T11:43:40.765Z,37.43
2019-04-06T11:47:13.769Z,34.77
2019-04-06T11:50:43.181Z,36.33
2019-04-06T11:54:04.819Z,42.77
2019-04-06T11:57:38.442Z,33.63
2019-04-06T12:01:07.644Z,34.13
2019-04-06T12:04:58.953Z,32.43
2019-04-06T12:08:24.296Z,34.77
2019-04-06T12:11:50.943Z,32.27
2019-04-06T12:15:29.037Z,32.13
2019-04-06T12:18:48.655Z,32.63
2019-04-06T12:22:24.384Z,30.77
2019-04-06T12:26:00.485Z,31.97
2019-04-06T12:29:33.142Z,31.80
2019-04-06T12:32:54.600Z,32.97
2019-04-06T12:36:28.000Z,35.17
2019-04-06T12:39:53.711Z,34.67
2019-04-06T12:43:19.164Z,34.73
2019-04-06T12:46:52.083Z,35.90
2019-04-06T12:50:24.239Z,35.37
2019-04-06T12:54:09.308Z,34.40
2019-04-06T12:57:42.763Z,30.53
2019-04-06T13:01:34.160Z,36.17
2019-04-06T13:05:07.092Z,35.73
2019-04-06T13:08:29.323Z,36.67
2019-04-06T13:11:51.070Z,34.20
2019-04-06T13:15:36.914Z,35.47
2019-04-06T13:19:10.402Z,35.50
2019-04-06T13:22:34.292Z,32.50
2019-04-06T13:25:55.965Z,36.63
2019-04-06T13:29:21.342Z,34.57
2019-04-06T13:32:57.721Z,33.90
2019-04-06T13:36:46.428Z,34.40
2019-04-06T13:40:31.842Z,33.83
2019-04-06T13:44:14.088Z,33.97
2019-04-06T13:47:40.183Z,35.23
2019-04-06T13:51:03.540Z,31.50
2019-04-06T13:54:52.130Z,36.23
2019-04-06T13:58:23.958Z,32.80
2019-04-06T14:01:57.087Z,31.33
2019-04-06T14:05:26.606Z,32.80
2019-04-06T14:08:58.703Z,33.67
2019-04-06T14:12:43.767Z,33.43
2019-04-06T14:16:09.530Z,32.43
2019-04-06T14:19:41.572Z,31.10
2019-04-06T14:23:23.702Z,31.70
2019-04-06T14:27:04.190Z,29.93
2019-04-06T14:30:24.869Z,33.40
2019-04-06T14:33:46.153Z,33.87
2019-04-06T14:37:38.132Z,30.00
2019-04-06T14:41:12.639Z,30.20
2019-04-06T14:44:35.313Z,32.67
2019-04-06T14:48:09.403Z,29.90
2019-04-06T14:51:33.090Z,30.53
2019-04-06T14:55:06.556Z,30.57
2019-04-06T14:58:58.114Z,31.63
2019-04-06T15:02:21.523Z,28.13
2019-04-06T15:05:54.101Z,27.43
2019-04-06T15:09:27.818Z,31.23
2019-04-06T15:13:00.997Z,29.33
2019-04-06T15:16:30.735Z,29.90
2019-04-06T15:19:53.953Z,27.07
2019-04-06T15:23:24.464Z,24.40
2019-04-06T15:26:54.748Z,24.93
2019-04-06T15:30:31.473Z,27.93
2019-04-06T15:33:59.513Z,28.83
2019-04-06T15:37:29.204Z,25.50
2019-04-06T15:40:49.392Z,24.90
2019-04-06T15:44:17.350Z,25.10
2019-04-06T15:47:53.834Z,22.50
2019-04-06T15:51:36.242Z,22.10
2019-04-06T15:54:58.443Z,22.97
2019-04-06T15:58:31.882Z,24.70
2019-04-06T16:02:01.622Z,23.07
2019-04-06T16:05:17.242Z,23.93
2019-04-06T16:08:49.492Z,24.20
2019-04-06T16:12:21.617Z,22.47
2019-04-06T16:15:53.845Z,23.90
2019-04-06T16:19:35.873Z,23.27
2019-04-06T16:23:03.095Z,22.00
2019-04-06T16:26:22.734Z,22.73
2019-04-06T16:30:14.141Z,24.03
2019-04-06T16:33:38.039Z,21.97
2019-04-06T16:37:15.011Z,21.83
2019-04-06T16:40:48.315Z,23.30
2019-04-06T16:44:33.858Z,22.27
2019-04-06T16:47:53.631Z,21.73
2019-04-06T16:51:26.228Z,22.10
2019-04-06T16:54:47.474Z,23.00
2019-04-06T16:58:20.746Z,22.83
2019-04-06T17:01:40.079Z,23.23
2019-04-06T17:05:16.608Z,22.37
2019-04-06T17:08:45.934Z,20.73
2019-04-06T17:12:17.856Z,24.20
2019-04-06T17:15:56.007Z,21.67
2019-04-06T17:19:28.135Z,21.17
2019-04-06T17:22:58.027Z,21.63
2019-04-06T17:26:20.466Z,25.37
2019-04-06T17:29:52.386Z,24.97
2019-04-06T17:33:12.618Z,24.43
2019-04-06T17:36:49.174Z,21.97
2019-04-06T17:40:23.515Z,18.80
2019-04-06T17:44:12.585Z,19.50
2019-04-06T17:47:44.112Z,20.83
2019-04-06T17:51:02.323Z,26.13
2019-04-06T17:54:38.623Z,22.43
2019-04-06T17:58:17.620Z,16.73
2019-04-06T18:01:53.136Z,18.37
2019-04-06T18:05:29.356Z,19.43
2019-04-06T18:08:51.104Z,20.50
2019-04-06T18:12:28.082Z,21.80
2019-04-06T18:15:42.139Z,20.30
2019-04-06T18:18:55.647Z,20.17
2019-04-06T18:22:09.178Z,18.60
2019-04-06T18:25:22.754Z,19.93
2019-04-06T18:28:36.327Z,23.90
2019-04-06T18:32:12.743Z,21.10
2019-04-06T18:35:27.188Z,20.13
2019-04-06T18:38:47.846Z,99.67
2019-04-06T18:42:01.912Z,54.93
2019-04-06T18:45:15.499Z,39.23
2019-04-06T18:48:29.300Z,26.60
2019-04-06T18:51:43.372Z,28.53
2019-04-06T18:54:57.397Z,35.20
2019-04-06T18:58:13.052Z,27.93
2019-04-06T19:01:26.779Z,24.97
2019-04-06T19:04:40.613Z,76.33
2019-04-06T19:07:54.090Z,42.27
2019-04-06T19:11:08.130Z,40.07
2019-04-06T19:14:21.560Z,21.87
2019-04-06T19:17:35.077Z,21.87
2019-04-06T19:20:48.575Z,44.27
2019-04-06T19:24:02.332Z,44.23
2019-04-06T19:27:15.806Z,49.60
2019-04-06T19:30:30.356Z,50.00
2019-04-06T19:33:44.100Z,41.80
2019-04-06T19:36:57.954Z,23.10
2019-04-06T19:40:12.358Z,25.50
2019-04-06T19:43:26.734Z,21.13
2019-04-06T19:46:41.297Z,30.73
2019-04-06T19:49:55.120Z,22.77
2019-04-06T19:53:09.019Z,62.43
2019-04-06T19:56:23.307Z,70.47
2019-04-06T19:59:37.307Z,54.57
2019-04-06T20:02:50.861Z,44.00
2019-04-06T20:06:04.810Z,61.87
2019-04-06T20:09:18.694Z,35.20
2019-04-06T20:12:32.570Z,21.97
2019-04-06T20:15:46.481Z,24.27
2019-04-06T20:18:59.994Z,39.53
2019-04-06T20:22:14.882Z,41.37
2019-04-06T20:25:28.740Z,32.60
2019-04-06T20:28:42.256Z,21.20
2019-04-06T20:31:56.349Z,26.53
2019-04-06T20:35:10.948Z,27.13
2019-04-06T20:38:24.715Z,30.70
2019-04-06T20:41:38.305Z,29.30
2019-04-06T20:44:52.680Z,26.37
2019-04-06T20:48:06.253Z,26.33
2019-04-06T20:51:39.479Z,24.73
2019-04-06T20:54:53.749Z,21.43
2019-04-06T20:58:07.381Z,22.90
2019-04-06T21:01:21.112Z,21.10
2019-04-06T21:04:34.609Z,25.07
2019-04-06T21:07:48.535Z,20.93
2019-04-06T21:11:02.192Z,21.73
2019-04-06T21:14:16.134Z,23.60
2019-04-06T21:17:29.629Z,24.10
2019-04-06T21:20:43.189Z,26.43
2019-04-06T21:23:56.712Z,24.93
2019-04-06T21:27:10.713Z,31.67
2019-04-06T21:30:24.627Z,21.63
2019-04-06T21:33:38.591Z,20.47
2019-04-06T21:36:52.772Z,55.27
2019-04-06T21:40:06.817Z,32.10
2019-04-06T21:43:20.568Z,25.40
2019-04-06T21:46:34.294Z,23.53
2019-04-06T21:49:48.011Z,33.47
2019-04-06T21:53:01.749Z,28.10
2019-04-06T21:56:19.098Z,24.37
2019-04-06T21:59:33.871Z,24.87
2019-04-06T22:02:48.596Z,21.47
2019-04-06T22:06:02.509Z,18.97
2019-04-06T22:09:16.404Z,21.73
2019-04-06T22:12:29.961Z,22.37
2019-04-06T22:15:43.875Z,25.27
2019-04-06T22:18:57.435Z,26.93
2019-04-06T22:22:11.115Z,23.33
2019-04-06T22:25:44.945Z,25.93
2019-04-06T22:28:59.109Z,26.57
2019-04-06T22:32:13.069Z,24.87
2019-04-06T22:35:26.540Z,32.57
2019-04-06T22:38:40.168Z,23.57
2019-04-06T22:41:53.931Z,26.20
2019-04-06T22:45:09.695Z,24.97
2019-04-06T22:48:23.193Z,25.93
2019-04-06T22:51:36.646Z,24.47
2019-04-06T22:54:50.280Z,24.57
2019-04-06T22:58:04.104Z,19.87
2019-04-06T23:01:18.586Z,20.53
2019-04-06T23:04:47.221Z,19.00
2019-04-06T23:07:53.367Z,20.20
2019-04-06T23:11:07.149Z,20.93
2019-04-06T23:14:20.893Z,20.33
2019-04-06T23:17:34.736Z,21.40
2019-04-06T23:20:48.344Z,19.87
2019-04-06T23:24:03.648Z,22.90
2019-04-06T23:27:17.456Z,22.00
2019-04-06T23:30:31.760Z,21.50
2019-04-06T23:33:45.934Z,20.73
2019-04-06T23:37:00.641Z,22.53
2019-04-06T23:40:15.162Z,25.13
2019-04-06T23:43:28.982Z,26.50
2019-04-06T23:46:43.456Z,21.90
2019-04-06T23:49:57.435Z,24.00
2019-04-06T23:53:11.109Z,25.97
2019-04-06T23:56:25.364Z,24.17
2019-04-06T23:59:39.528Z,23.23
